Terminal Aerodrome Forecast
Issued by NWS Charleston, WV

Current Version | Previous Version | Graphics & Text | Print | Product List | Glossary On
Versions: 1 2 3 4 5 6 7 8 9 10 11 12 13 14 15 16 17 18 19 20 21 22 23
000
FTUS41 KRLX 271300 AAA
TAFPKB
TAF AMD
KPKB 271330Z 2713/2812 32010G16KT P6SM SCT025 BKN040
      TEMPO 2714/2717 BKN025
     FM280500 33007KT P6SM SCT040=

USA.gov is the U.S. government's official web portal to all federal, state and local government web resources and services.